createdAt,value
2023-04-16T00:02:40.063Z,94.74
2023-04-16T00:05:43.215Z,94.41
2023-04-16T00:08:46.016Z,94.40
2023-04-16T00:11:48.955Z,94.22
2023-04-16T00:14:51.486Z,94.33
2023-04-16T00:17:54.325Z,94.00
2023-04-16T00:20:57.268Z,93.78
2023-04-16T00:24:00.390Z,93.54
2023-04-16T00:27:23.185Z,92.95
2023-04-16T00:30:26.588Z,92.74
2023-04-16T00:33:30.198Z,92.46
2023-04-16T00:36:33.086Z,92.05
2023-04-16T00:39:35.643Z,92.29
2023-04-16T00:42:38.402Z,92.04
2023-04-16T00:45:41.005Z,91.40
2023-04-16T00:48:44.350Z,92.40
2023-04-16T00:51:48.165Z,93.28
2023-04-16T00:54:50.998Z,94.50
2023-04-16T00:57:53.514Z,94.63
2023-04-16T01:00:56.838Z,94.60
2023-04-16T01:03:59.716Z,94.71
2023-04-16T01:07:02.950Z,94.58
2023-04-16T01:10:06.135Z,94.01
2023-04-16T01:13:09.159Z,94.13
2023-04-16T01:16:12.791Z,94.49
2023-04-16T01:19:15.828Z,94.44
2023-04-16T01:22:18.347Z,94.33
2023-04-16T01:25:21.267Z,94.69
2023-04-16T01:28:23.873Z,94.62
2023-04-16T01:31:27.211Z,94.51
2023-04-16T01:34:30.577Z,94.81
2023-04-16T01:37:34.003Z,94.68
2023-04-16T01:40:38.050Z,94.48
2023-04-16T01:43:42.526Z,94.10
2023-04-16T01:46:45.342Z,94.01
2023-04-16T01:49:48.420Z,94.20
2023-04-16T01:52:51.251Z,93.98
2023-04-16T01:55:54.120Z,93.70
2023-04-16T01:58:57.030Z,93.43
2023-04-16T02:02:03.841Z,93.38
2023-04-16T02:05:08.572Z,93.15
2023-04-16T02:08:11.253Z,93.25
2023-04-16T02:11:14.216Z,93.73
2023-04-16T02:14:17.064Z,94.07
2023-04-16T02:17:20.067Z,94.51
2023-04-16T02:20:23.118Z,92.19
2023-04-16T02:23:26.182Z,92.66
2023-04-16T02:26:29.799Z,93.25
2023-04-16T02:29:33.954Z,93.09
2023-04-16T02:32:37.112Z,92.76
2023-04-16T02:35:41.301Z,92.45
2023-04-16T02:38:43.946Z,92.01
2023-04-16T02:41:46.994Z,92.63
2023-04-16T02:44:49.879Z,92.56
2023-04-16T02:47:52.871Z,93.03
2023-04-16T02:50:55.744Z,93.94
2023-04-16T02:53:58.667Z,96.22
2023-04-16T02:57:02.424Z,96.84
2023-04-16T03:00:06.605Z,99.91
2023-04-16T03:03:09.307Z,99.39
2023-04-16T03:06:12.807Z,99.29
2023-04-16T03:09:15.490Z,98.93
2023-04-16T03:12:18.415Z,98.17
2023-04-16T03:15:21.035Z,98.22
2023-04-16T03:18:23.928Z,97.29
2023-04-16T03:21:46.326Z,96.08
2023-04-16T03:24:49.588Z,95.73
2023-04-16T03:27:52.233Z,95.42
2023-04-16T03:30:55.735Z,95.49
2023-04-16T03:33:58.288Z,95.79
2023-04-16T03:37:01.566Z,95.83
2023-04-16T03:40:06.222Z,95.40
2023-04-16T03:43:09.207Z,95.58
2023-04-16T03:46:13.143Z,95.41
2023-04-16T03:49:15.974Z,95.86
2023-04-16T03:52:19.080Z,95.47
2023-04-16T03:55:22.197Z,95.26
2023-04-16T03:58:24.872Z,95.60
2023-04-16T04:01:28.147Z,97.06
2023-04-16T04:04:31.238Z,96.76
2023-04-16T04:07:34.155Z,96.57
2023-04-16T04:10:37.296Z,97.15
2023-04-16T04:13:40.383Z,96.98
2023-04-16T04:16:43.689Z,96.80
2023-04-16T04:20:00.134Z,97.94
2023-04-16T04:23:04.511Z,98.90
2023-04-16T04:26:07.577Z,99.74
2023-04-16T04:29:11.194Z,100.00
2023-04-16T04:32:13.918Z,100.00
2023-04-16T04:35:16.763Z,100.00
2023-04-16T04:38:22.093Z,100.00
2023-04-16T04:41:26.990Z,100.00
2023-04-16T04:44:29.692Z,100.00
2023-04-16T04:47:33.033Z,100.00
2023-04-16T04:50:36.891Z,100.00
2023-04-16T04:53:39.862Z,100.00
2023-04-16T04:56:42.340Z,99.76
2023-04-16T04:59:45.945Z,99.42
2023-04-16T05:02:49.789Z,99.70
2023-04-16T05:05:52.932Z,99.72
2023-04-16T05:08:56.023Z,99.89
2023-04-16T05:11:59.285Z,100.00
2023-04-16T05:15:01.842Z,100.00
2023-04-16T05:18:05.675Z,100.00
2023-04-16T05:21:08.615Z,100.00
2023-04-16T05:24:12.565Z,100.00
2023-04-16T05:27:16.900Z,100.00
2023-04-16T05:30:19.958Z,100.00
2023-04-16T05:33:22.532Z,100.00
2023-04-16T05:36:25.499Z,100.00
2023-04-16T05:39:28.091Z,100.00
2023-04-16T05:42:31.074Z,99.62
2023-04-16T05:45:39.597Z,99.06
2023-04-16T05:48:43.347Z,98.79
2023-04-16T05:51:46.036Z,100.00
2023-04-16T05:54:48.837Z,100.00
2023-04-16T05:57:51.600Z,99.62
2023-04-16T06:01:54.584Z,98.48
2023-04-16T06:05:02.304Z,98.66
2023-04-16T06:08:04.962Z,99.65
2023-04-16T06:11:08.296Z,99.44
2023-04-16T06:14:11.194Z,100.00
2023-04-16T06:17:14.266Z,99.54
2023-04-16T06:20:17.733Z,98.65
2023-04-16T06:23:20.543Z,98.94
2023-04-16T06:26:23.085Z,98.62
2023-04-16T06:29:37.067Z,98.18
2023-04-16T06:32:43.716Z,98.25
2023-04-16T06:35:46.612Z,96.60
2023-04-16T06:38:49.160Z,97.39
2023-04-16T06:41:52.415Z,97.01
2023-04-16T06:44:54.945Z,95.64
2023-04-16T06:47:59.131Z,94.67
2023-04-16T06:51:02.187Z,94.99
2023-04-16T06:54:06.236Z,94.05
2023-04-16T06:57:08.777Z,92.71
2023-04-16T07:00:12.313Z,93.40
2023-04-16T07:03:15.090Z,93.37
2023-04-16T07:06:19.909Z,92.22
2023-04-16T07:09:22.393Z,92.30
2023-04-16T07:12:25.517Z,90.33
2023-04-16T07:15:28.011Z,90.87
2023-04-16T07:18:30.845Z,90.61
2023-04-16T07:21:33.400Z,87.33
2023-04-16T07:24:36.308Z,87.86
2023-04-16T07:27:38.986Z,88.00
2023-04-16T07:30:41.801Z,87.36
2023-04-16T07:33:44.469Z,86.25
2023-04-16T07:36:47.314Z,86.18
2023-04-16T07:39:50.137Z,86.41
2023-04-16T07:42:53.051Z,85.36
2023-04-16T07:45:55.896Z,84.60
2023-04-16T07:48:58.730Z,84.59
2023-04-16T07:52:01.403Z,84.56
2023-04-16T07:55:05.172Z,84.04
2023-04-16T07:58:09.524Z,83.71
2023-04-16T08:01:13.073Z,82.06
2023-04-16T08:04:20.218Z,81.52
2023-04-16T08:07:22.886Z,80.02
2023-04-16T08:10:26.228Z,80.33
2023-04-16T08:13:28.859Z,78.74
2023-04-16T08:16:31.865Z,79.08
2023-04-16T08:19:34.802Z,80.03
2023-04-16T08:22:37.704Z,78.93
2023-04-16T08:25:40.316Z,79.03
2023-04-16T08:28:43.337Z,79.33
2023-04-16T08:31:46.589Z,78.16
2023-04-16T08:35:10.428Z,76.35
2023-04-16T08:38:13.976Z,75.37
2023-04-16T08:41:16.883Z,77.06
2023-04-16T08:44:32.769Z,75.61
2023-04-16T08:47:39.022Z,74.56
2023-04-16T08:50:42.169Z,74.40
2023-04-16T08:53:53.695Z,74.15
2023-04-16T08:56:58.276Z,74.31
2023-04-16T09:00:01.515Z,71.89
2023-04-16T09:03:04.904Z,72.85
2023-04-16T09:06:08.888Z,72.96
2023-04-16T09:09:12.974Z,70.92
2023-04-16T09:12:17.457Z,72.16
2023-04-16T09:15:20.970Z,72.22
2023-04-16T09:18:24.507Z,70.42
2023-04-16T09:21:27.994Z,71.01
2023-04-16T09:24:31.417Z,71.50
2023-04-16T09:27:34.494Z,71.36
2023-04-16T09:31:18.938Z,66.64
2023-04-16T09:34:25.692Z,64.55
2023-04-16T09:37:30.140Z,65.31
2023-04-16T09:40:32.696Z,62.89
2023-04-16T09:43:35.735Z,65.12
2023-04-16T09:46:41.761Z,64.51
2023-04-16T09:49:44.811Z,64.58
2023-04-16T09:52:51.401Z,64.65
2023-04-16T09:56:06.211Z,62.76
2023-04-16T09:59:17.549Z,62.12
2023-04-16T10:02:27.469Z,62.73
2023-04-16T10:05:30.740Z,62.81
2023-04-16T10:08:34.308Z,63.05
2023-04-16T10:11:37.425Z,61.63
2023-04-16T10:14:41.177Z,61.74
2023-04-16T10:17:44.187Z,62.29
2023-04-16T10:20:46.985Z,61.31
2023-04-16T10:23:52.098Z,63.03
2023-04-16T10:26:55.432Z,61.61
2023-04-16T10:29:58.559Z,61.37
2023-04-16T10:33:02.513Z,61.57
2023-04-16T10:36:13.869Z,60.46
2023-04-16T10:39:21.863Z,61.37
2023-04-16T10:42:26.052Z,61.74
2023-04-16T10:45:47.925Z,59.30
2023-04-16T10:48:54.302Z,60.29
2023-04-16T10:52:02.378Z,58.78
2023-04-16T10:55:06.302Z,58.15
2023-04-16T10:58:27.935Z,57.16
2023-04-16T11:01:36.181Z,57.10
2023-04-16T11:04:40.409Z,56.58
2023-04-16T11:07:49.626Z,54.16
2023-04-16T11:10:53.040Z,53.40
2023-04-16T11:13:57.120Z,53.21
2023-04-16T11:17:03.627Z,50.21
2023-04-16T11:20:20.223Z,48.78
2023-04-16T11:23:23.523Z,53.80
2023-04-16T11:26:31.015Z,52.25
2023-04-16T11:29:36.063Z,50.55
2023-04-16T11:32:39.530Z,52.04
2023-04-16T11:35:46.130Z,50.59
2023-04-16T11:38:49.229Z,50.52
2023-04-16T11:41:56.051Z,50.23
2023-04-16T11:45:03.124Z,50.20
2023-04-16T11:48:05.906Z,48.54
2023-04-16T11:51:08.975Z,48.67
2023-04-16T11:54:21.469Z,47.98
2023-04-16T11:57:31.853Z,49.37
2023-04-16T12:00:37.581Z,48.75
2023-04-16T12:03:46.182Z,49.28
2023-04-16T12:07:11.037Z,50.98
2023-04-16T12:10:13.945Z,50.16
2023-04-16T12:13:17.740Z,48.57
2023-04-16T12:16:21.061Z,46.97
2023-04-16T12:19:23.933Z,48.54
2023-04-16T12:22:36.730Z,46.06
2023-04-16T12:25:42.905Z,47.54
2023-04-16T12:28:47.453Z,44.82
2023-04-16T12:31:51.293Z,45.61
2023-04-16T12:34:54.172Z,44.86
2023-04-16T12:37:56.902Z,44.58
2023-04-16T12:41:02.371Z,44.12
2023-04-16T12:44:18.253Z,44.49
2023-04-16T12:47:21.218Z,42.90
2023-04-16T12:50:23.911Z,44.46
2023-04-16T12:53:27.222Z,43.16
2023-04-16T12:56:30.732Z,44.59
2023-04-16T12:59:33.650Z,44.10
2023-04-16T13:02:36.800Z,42.74
2023-04-16T13:05:40.625Z,43.86
2023-04-16T13:08:44.486Z,43.51
2023-04-16T13:11:47.604Z,42.70
2023-04-16T13:14:50.181Z,40.35
2023-04-16T13:17:53.116Z,41.32
2023-04-16T13:20:55.908Z,41.78
2023-04-16T13:23:59.658Z,40.74
2023-04-16T13:27:02.219Z,40.36
2023-04-16T13:30:05.860Z,41.10
2023-04-16T13:33:09.457Z,41.90
2023-04-16T13:36:13.117Z,41.11
2023-04-16T13:39:16.499Z,40.63
2023-04-16T13:42:19.335Z,40.52
2023-04-16T13:45:22.058Z,40.14
2023-04-16T13:48:28.053Z,38.96
2023-04-16T13:51:30.557Z,39.02
2023-04-16T13:54:33.459Z,40.37
2023-04-16T13:57:36.485Z,40.73
2023-04-16T14:00:39.486Z,38.30
2023-04-16T14:03:42.529Z,40.02
2023-04-16T14:06:45.684Z,39.73
2023-04-16T14:09:48.630Z,39.23
2023-04-16T14:12:51.837Z,39.56
2023-04-16T14:15:55.759Z,40.87
2023-04-16T14:18:58.559Z,39.38
2023-04-16T14:22:01.409Z,38.33
2023-04-16T14:25:04.278Z,37.06
2023-04-16T14:28:07.356Z,37.45
2023-04-16T14:31:10.631Z,38.08
2023-04-16T14:34:13.601Z,38.64
2023-04-16T14:37:17.509Z,38.14
2023-04-16T14:40:20.458Z,37.42
2023-04-16T14:43:23.084Z,38.04
2023-04-16T14:46:27.134Z,39.02
2023-04-16T14:49:30.166Z,39.97
2023-04-16T14:52:33.162Z,40.46
2023-04-16T14:55:35.749Z,39.98
2023-04-16T14:58:39.396Z,39.94
2023-04-16T15:01:42.889Z,41.72
2023-04-16T15:04:46.618Z,41.42
2023-04-16T15:07:49.433Z,40.45
2023-04-16T15:10:52.675Z,41.43
2023-04-16T15:13:56.046Z,40.03
2023-04-16T15:16:59.121Z,40.46
2023-04-16T15:20:01.759Z,39.93
2023-04-16T15:23:04.729Z,40.03
2023-04-16T15:26:07.574Z,41.25
2023-04-16T15:29:10.869Z,41.78
2023-04-16T15:32:13.557Z,42.28
2023-04-16T15:35:16.429Z,41.83
2023-04-16T15:38:21.519Z,42.31
2023-04-16T15:41:25.006Z,42.09
2023-04-16T15:44:54.202Z,42.95
2023-04-16T15:47:57.271Z,43.90
2023-04-16T15:51:05.461Z,43.42
2023-04-16T15:54:56.585Z,43.67
2023-04-16T15:58:18.176Z,44.04
2023-04-16T16:01:22.327Z,46.36
2023-04-16T16:04:26.658Z,47.11
2023-04-16T16:07:29.773Z,47.79
2023-04-16T16:10:34.327Z,48.61
2023-04-16T16:13:38.085Z,48.50
2023-04-16T16:16:42.387Z,49.04
2023-04-16T16:19:46.728Z,49.71
2023-04-16T16:23:00.126Z,49.93
2023-04-16T16:26:26.890Z,50.08
2023-04-16T16:29:56.621Z,51.07
2023-04-16T16:33:08.104Z,51.98
2023-04-16T16:36:11.776Z,51.37
2023-04-16T16:39:14.835Z,52.05
2023-04-16T16:42:18.883Z,52.16
2023-04-16T16:45:21.848Z,52.12
2023-04-16T16:48:25.426Z,52.29
2023-04-16T16:51:30.457Z,52.82
2023-04-16T16:54:33.578Z,53.38
2023-04-16T16:57:36.954Z,53.79
2023-04-16T17:00:40.334Z,53.74
2023-04-16T17:03:43.274Z,53.71
2023-04-16T17:06:46.989Z,54.00
2023-04-16T17:09:50.718Z,53.97
2023-04-16T17:12:54.113Z,54.10
2023-04-16T17:15:57.066Z,54.27
2023-04-16T17:19:01.375Z,54.81
2023-04-16T17:22:05.187Z,54.85
2023-04-16T17:25:08.991Z,55.25
2023-04-16T17:28:11.772Z,55.32
2023-04-16T17:31:15.524Z,56.16
2023-04-16T17:34:19.661Z,56.48
2023-04-16T17:37:24.577Z,56.40
2023-04-16T17:40:27.521Z,56.38
2023-04-16T17:43:30.828Z,56.79
2023-04-16T17:46:33.758Z,57.33
2023-04-16T17:49:39.653Z,57.53
2023-04-16T17:52:42.555Z,57.79
2023-04-16T17:55:56.837Z,58.16
2023-04-16T17:59:00.792Z,57.57
2023-04-16T18:02:04.359Z,57.39
2023-04-16T18:05:10.455Z,57.68
2023-04-16T18:08:16.975Z,57.86
2023-04-16T18:11:22.831Z,58.26
2023-04-16T18:14:26.360Z,58.29
2023-04-16T18:17:30.037Z,58.60
2023-04-16T18:20:35.765Z,58.25
2023-04-16T18:23:39.170Z,58.55
2023-04-16T18:26:42.517Z,58.86
2023-04-16T18:29:49.369Z,58.72
2023-04-16T18:33:13.164Z,59.26
2023-04-16T18:36:16.564Z,59.48
2023-04-16T18:39:19.406Z,59.94
2023-04-16T18:42:28.308Z,60.64
2023-04-16T18:45:34.362Z,61.68
2023-04-16T18:48:38.174Z,61.56
2023-04-16T18:51:42.270Z,62.73
2023-04-16T18:54:45.890Z,63.38
2023-04-16T18:57:49.306Z,63.25
2023-04-16T19:00:59.573Z,63.03
2023-04-16T19:04:03.549Z,63.90
2023-04-16T19:07:07.375Z,64.24
2023-04-16T19:10:10.712Z,64.72
2023-04-16T19:13:17.211Z,64.99
2023-04-16T19:16:20.929Z,65.23
2023-04-16T19:19:24.771Z,65.14
2023-04-16T19:22:28.129Z,65.93
2023-04-16T19:25:32.611Z,66.20
2023-04-16T19:28:35.682Z,66.42
2023-04-16T19:31:39.215Z,66.44
2023-04-16T19:34:42.284Z,65.70
2023-04-16T19:37:46.486Z,65.47
2023-04-16T19:40:49.507Z,65.08
2023-04-16T19:43:54.771Z,65.55
2023-04-16T19:46:59.221Z,65.17
2023-04-16T19:50:08.500Z,65.47
2023-04-16T19:53:12.056Z,65.93
2023-04-16T19:56:17.093Z,65.96
2023-04-16T19:59:20.729Z,65.76
2023-04-16T20:02:24.209Z,65.52
2023-04-16T20:05:29.359Z,65.70
2023-04-16T20:08:32.285Z,66.15
2023-04-16T20:11:35.848Z,66.04
2023-04-16T20:14:39.040Z,66.16
2023-04-16T20:17:42.414Z,66.43
2023-04-16T20:20:47.302Z,66.11
2023-04-16T20:23:50.125Z,65.88
2023-04-16T20:26:53.694Z,65.89
2023-04-16T20:29:56.942Z,65.92
2023-04-16T20:32:59.688Z,65.70
2023-04-16T20:36:02.760Z,65.77
2023-04-16T20:39:07.922Z,66.09
2023-04-16T20:42:11.654Z,65.82
2023-04-16T20:45:14.367Z,65.66
2023-04-16T20:48:17.484Z,65.13
2023-04-16T20:51:21.523Z,64.96
2023-04-16T20:54:24.404Z,64.35
2023-04-16T20:57:29.426Z,65.18
2023-04-16T21:00:32.342Z,64.52
2023-04-16T21:03:35.432Z,64.97
2023-04-16T21:06:43.093Z,65.59
2023-04-16T21:09:45.851Z,64.81
2023-04-16T21:12:48.864Z,65.44
2023-04-16T21:15:51.512Z,65.07
2023-04-16T21:18:55.754Z,64.12
2023-04-16T21:21:58.550Z,64.87
2023-04-16T21:25:02.566Z,63.78
2023-04-16T21:28:05.447Z,64.17
2023-04-16T21:31:08.396Z,64.22
2023-04-16T21:34:10.986Z,64.75
2023-04-16T21:37:13.784Z,64.99
2023-04-16T21:40:16.598Z,65.18
2023-04-16T21:43:24.021Z,65.31
2023-04-16T21:46:29.724Z,65.04
2023-04-16T21:49:32.789Z,65.02
2023-04-16T21:52:40.590Z,65.06
2023-04-16T21:55:43.912Z,65.21
2023-04-16T21:58:46.520Z,65.12
2023-04-16T22:01:49.433Z,65.01
2023-04-16T22:04:52.426Z,65.73
2023-04-16T22:07:55.014Z,65.71
2023-04-16T22:10:59.283Z,65.73
2023-04-16T22:14:08.853Z,65.45
2023-04-16T22:17:12.864Z,66.07
2023-04-16T22:20:16.595Z,65.74
2023-04-16T22:23:28.436Z,66.21
2023-04-16T22:27:15.888Z,65.92
2023-04-16T22:30:31.446Z,66.30
2023-04-16T22:34:15.985Z,65.71
2023-04-16T22:37:24.693Z,66.19
2023-04-16T22:40:31.578Z,66.59
2023-04-16T22:43:37.189Z,66.74
2023-04-16T22:46:40.862Z,66.96
2023-04-16T22:49:43.740Z,66.72
2023-04-16T22:52:46.529Z,67.18
2023-04-16T22:55:49.368Z,67.45
2023-04-16T22:58:52.877Z,66.63
2023-04-16T23:01:56.056Z,66.48
2023-04-16T23:05:00.696Z,66.42
2023-04-16T23:08:03.678Z,66.78
2023-04-16T23:11:06.432Z,66.87
2023-04-16T23:14:09.824Z,66.87
2023-04-16T23:17:13.792Z,66.55
2023-04-16T23:20:16.688Z,67.08
2023-04-16T23:23:19.680Z,66.84
2023-04-16T23:26:22.624Z,67.16
2023-04-16T23:29:25.302Z,66.82
2023-04-16T23:32:28.268Z,66.49
2023-04-16T23:35:31.006Z,65.84
2023-04-16T23:38:34.103Z,66.28
2023-04-16T23:41:36.645Z,66.50
2023-04-16T23:44:39.522Z,66.44
2023-04-16T23:47:42.374Z,66.36
2023-04-16T23:51:01.172Z,66.46
2023-04-16T23:54:04.357Z,66.04
2023-04-16T23:57:07.164Z,66.56
